General Aviation Weather

Text Reports

Enter one or more of the following location identifiers separated by a space:

Zip Code, Four-Character ICAO or Three-Character IATA airport codes.

METAR - Aviation Routine Weather Report
KREO - Rome, Oregon
Updated at 3:52 AM GMT on November 24, 2014 (7:52 PM PST):
METAR KREO 240352Z AUTO 21013KT 04/M06 A3024 RMK AO1 SLP259 T00391056
TAF - Terminal Area Forecast
KREO - Rome, Oregon
Updated at 3:52 AM GMT on November 24, 2014 (7:52 PM PST):
No TAF is currently available for this location.
Decoded:
No decoded TAF is available.
PIREP - Pilot Weather Report
KREO - Rome, Oregon
Updated at 3:52 AM GMT on November 24, 2014 (7:52 PM PST):
No PIREP is currently available for this location.
AIRMET - Airmens Meteorological Information
KREO - Rome, Oregon
Updated at 3:52 AM GMT on November 24, 2014 (7:52 PM PST):
No AIRMET is currently available for this location.
SIGMET - Significant Meteorological Information
KREO - Rome, Oregon
Updated at 3:52 AM GMT on November 24, 2014 (7:52 PM PST):
No SIGMET is currently available for this location.
NOTAM - Notice to Airmen
KREO - Rome, Oregon
Updated at 3:52 AM GMT on November 24, 2014 (7:52 PM PST):
No NOTAM is currently available for this location.
Forecast Area
KREO - Rome, Oregon
Updated at 3:52 AM GMT on November 24, 2014 (7:52 PM PST):
No NOTAM is currently available for this location.
Aviation Weather Maps